sensor_id;sensor_type;location;lat;lon;timestamp;P1;durP1;ratioP1;P2;durP2;ratioP2
13085;SDS011;6609;49.882;8.664;2024-03-17T08:21:34;5.03;;;2.60;;
13085;SDS011;6609;49.882;8.664;2024-03-17T08:24:01;6.63;;;2.83;;
13085;SDS011;6609;49.882;8.664;2024-03-17T08:26:28;6.60;;;3.03;;
13085;SDS011;6609;49.882;8.664;2024-03-17T08:28:55;4.57;;;2.87;;
13085;SDS011;6609;49.882;8.664;2024-03-17T08:31:23;4.47;;;2.50;;
13085;SDS011;6609;49.882;8.664;2024-03-17T08:33:50;5.23;;;2.73;;
13085;SDS011;6609;49.882;8.664;2024-03-17T08:36:18;8.60;;;2.73;;
13085;SDS011;6609;49.882;8.664;2024-03-17T08:38:46;4.67;;;2.73;;
13085;SDS011;6609;49.882;8.664;2024-03-17T08:41:13;5.83;;;3.27;;
13085;SDS011;6609;49.882;8.664;2024-03-17T08:55:57;8.33;;;3.20;;
13085;SDS011;6609;49.882;8.664;2024-03-17T08:58:25;7.40;;;3.33;;
13085;SDS011;6609;49.882;8.664;2024-03-17T09:00:52;6.57;;;2.57;;
13085;SDS011;6609;49.882;8.664;2024-03-17T09:03:19;8.77;;;3.60;;
13085;SDS011;6609;49.882;8.664;2024-03-17T09:05:46;7.93;;;3.23;;
13085;SDS011;6609;49.882;8.664;2024-03-17T09:08:15;7.00;;;3.23;;
13085;SDS011;6609;49.882;8.664;2024-03-17T09:10:45;8.63;;;3.40;;
13085;SDS011;6609;49.882;8.664;2024-03-17T09:13:14;7.60;;;2.70;;
13085;SDS011;6609;49.882;8.664;2024-03-17T09:15:49;8.67;;;3.33;;
13085;SDS011;6609;49.882;8.664;2024-03-17T09:18:16;7.03;;;2.93;;
13085;SDS011;6609;49.882;8.664;2024-03-17T09:20:43;7.43;;;2.67;;
13085;SDS011;6609;49.882;8.664;2024-03-17T09:25:37;7.87;;;3.03;;
13085;SDS011;6609;49.882;8.664;2024-03-17T09:28:04;7.63;;;3.03;;
13085;SDS011;6609;49.882;8.664;2024-03-17T09:30:33;9.07;;;3.60;;
13085;SDS011;6609;49.882;8.664;2024-03-17T09:33:00;7.03;;;2.97;;
13085;SDS011;6609;49.882;8.664;2024-03-17T09:35:29;5.00;;;2.83;;
13085;SDS011;6609;49.882;8.664;2024-03-17T09:37:57;8.60;;;3.80;;
13085;SDS011;6609;49.882;8.664;2024-03-17T09:40:23;7.87;;;3.47;;
13085;SDS011;6609;49.882;8.664;2024-03-17T09:42:51;4.07;;;2.30;;
13085;SDS011;6609;49.882;8.664;2024-03-17T09:45:18;7.80;;;3.27;;
13085;SDS011;6609;49.882;8.664;2024-03-17T09:47:46;4.53;;;2.70;;
13085;SDS011;6609;49.882;8.664;2024-03-17T09:50:13;7.37;;;3.43;;
13085;SDS011;6609;49.882;8.664;2024-03-17T09:52:42;7.70;;;3.83;;
13085;SDS011;6609;49.882;8.664;2024-03-17T09:55:12;7.43;;;2.97;;
13085;SDS011;6609;49.882;8.664;2024-03-17T09:57:42;9.17;;;3.73;;
13085;SDS011;6609;49.882;8.664;2024-03-17T10:00:11;9.00;;;3.50;;
13085;SDS011;6609;49.882;8.664;2024-03-17T10:02:43;10.10;;;3.20;;
13085;SDS011;6609;49.882;8.664;2024-03-17T10:05:21;5.70;;;3.00;;
13085;SDS011;6609;49.882;8.664;2024-03-17T10:07:49;5.97;;;2.97;;
13085;SDS011;6609;49.882;8.664;2024-03-17T10:10:16;8.13;;;3.40;;
13085;SDS011;6609;49.882;8.664;2024-03-17T10:12:44;7.20;;;2.97;;
13085;SDS011;6609;49.882;8.664;2024-03-17T10:15:15;8.43;;;3.60;;
13085;SDS011;6609;49.882;8.664;2024-03-17T10:17:42;7.80;;;3.30;;
13085;SDS011;6609;49.882;8.664;2024-03-17T10:20:16;7.15;;;3.35;;
13085;SDS011;6609;49.882;8.664;2024-03-17T10:23:03;6.80;;;3.03;;
13085;SDS011;6609;49.882;8.664;2024-03-17T10:25:33;10.37;;;2.80;;
13085;SDS011;6609;49.882;8.664;2024-03-17T10:28:01;7.03;;;2.90;;
13085;SDS011;6609;49.882;8.664;2024-03-17T10:30:28;5.80;;;3.03;;
13085;SDS011;6609;49.882;8.664;2024-03-17T10:32:56;4.73;;;3.03;;
13085;SDS011;6609;49.882;8.664;2024-03-17T10:35:25;6.37;;;2.90;;
13085;SDS011;6609;49.882;8.664;2024-03-17T10:37:53;5.07;;;3.13;;
13085;SDS011;6609;49.882;8.664;2024-03-17T11:02:25;5.83;;;3.20;;
13085;SDS011;6609;49.882;8.664;2024-03-17T11:04:54;5.13;;;3.57;;
13085;SDS011;6609;49.882;8.664;2024-03-17T11:07:21;4.93;;;3.33;;
13085;SDS011;6609;49.882;8.664;2024-03-17T11:09:50;6.70;;;3.77;;
13085;SDS011;6609;49.882;8.664;2024-03-17T11:20:56;6.37;;;4.20;;
13085;SDS011;6609;49.882;8.664;2024-03-17T11:23:25;8.07;;;4.53;;
13085;SDS011;6609;49.882;8.664;2024-03-17T11:25:54;5.47;;;3.90;;
13085;SDS011;6609;49.882;8.664;2024-03-17T11:31:32;8.20;;;4.33;;
13085;SDS011;6609;49.882;8.664;2024-03-17T11:34:01;5.17;;;3.37;;
13085;SDS011;6609;49.882;8.664;2024-03-17T11:36:30;11.17;;;4.73;;
13085;SDS011;6609;49.882;8.664;2024-03-17T11:38:58;8.13;;;4.20;;
13085;SDS011;6609;49.882;8.664;2024-03-17T11:41:36;6.10;;;4.17;;
13085;SDS011;6609;49.882;8.664;2024-03-17T11:44:13;6.33;;;4.03;;
13085;SDS011;6609;49.882;8.664;2024-03-17T11:46:40;5.67;;;4.47;;
13085;SDS011;6609;49.882;8.664;2024-03-17T11:49:10;4.60;;;3.97;;
13085;SDS011;6609;49.882;8.664;2024-03-17T11:51:45;7.33;;;4.20;;
13085;SDS011;6609;49.882;8.664;2024-03-17T11:54:13;7.43;;;4.47;;
13085;SDS011;6609;49.882;8.664;2024-03-17T11:56:43;6.10;;;4.17;;
13085;SDS011;6609;49.882;8.664;2024-03-17T11:59:10;5.97;;;4.00;;
13085;SDS011;6609;49.882;8.664;2024-03-17T12:01:37;8.47;;;4.60;;
13085;SDS011;6609;49.882;8.664;2024-03-17T12:04:04;5.80;;;4.10;;
13085;SDS011;6609;49.882;8.664;2024-03-17T12:06:32;5.77;;;3.87;;
13085;SDS011;6609;49.882;8.664;2024-03-17T12:09:07;5.83;;;4.20;;
13085;SDS011;6609;49.882;8.664;2024-03-17T12:11:35;6.00;;;4.20;;
13085;SDS011;6609;49.882;8.664;2024-03-17T12:14:09;5.90;;;3.50;;
13085;SDS011;6609;49.882;8.664;2024-03-17T12:16:47;6.93;;;4.47;;
13085;SDS011;6609;49.882;8.664;2024-03-17T12:19:14;8.47;;;4.20;;
13085;SDS011;6609;49.882;8.664;2024-03-17T12:21:44;8.33;;;5.10;;
13085;SDS011;6609;49.882;8.664;2024-03-17T12:24:13;6.10;;;4.20;;
13085;SDS011;6609;49.882;8.664;2024-03-17T12:26:41;6.20;;;4.70;;
13085;SDS011;6609;49.882;8.664;2024-03-17T12:29:23;5.10;;;4.47;;
13085;SDS011;6609;49.882;8.664;2024-03-17T12:31:52;8.10;;;4.60;;
13085;SDS011;6609;49.882;8.664;2024-03-17T12:34:19;9.47;;;4.57;;
13085;SDS011;6609;49.882;8.664;2024-03-17T12:36:47;6.47;;;4.10;;
13085;SDS011;6609;49.882;8.664;2024-03-17T12:39:17;6.70;;;4.80;;
13085;SDS011;6609;49.882;8.664;2024-03-17T12:41:45;7.90;;;4.43;;
13085;SDS011;6609;49.882;8.664;2024-03-17T12:44:21;7.00;;;5.27;;
13085;SDS011;6609;49.882;8.664;2024-03-17T12:46:54;7.07;;;5.03;;
13085;SDS011;6609;49.882;8.664;2024-03-17T12:49:20;7.60;;;5.30;;
13085;SDS011;6609;49.882;8.664;2024-03-17T12:51:51;7.87;;;5.13;;
13085;SDS011;6609;49.882;8.664;2024-03-17T12:54:19;8.00;;;4.70;;
13085;SDS011;6609;49.882;8.664;2024-03-17T12:56:46;9.93;;;5.20;;
13085;SDS011;6609;49.882;8.664;2024-03-17T12:59:37;8.77;;;6.30;;
13085;SDS011;6609;49.882;8.664;2024-03-17T13:02:32;7.53;;;5.03;;
13085;SDS011;6609;49.882;8.664;2024-03-17T13:05:15;6.50;;;4.37;;
13085;SDS011;6609;49.882;8.664;2024-03-17T13:07:46;8.90;;;5.30;;
13085;SDS011;6609;49.882;8.664;2024-03-17T13:10:14;8.80;;;5.60;;
13085;SDS011;6609;49.882;8.664;2024-03-17T13:12:42;7.73;;;5.23;;
13085;SDS011;6609;49.882;8.664;2024-03-17T13:15:12;7.27;;;5.40;;
13085;SDS011;6609;49.882;8.664;2024-03-17T13:17:40;7.90;;;5.73;;
13085;SDS011;6609;49.882;8.664;2024-03-17T13:20:08;7.97;;;5.07;;
13085;SDS011;6609;49.882;8.664;2024-03-17T13:22:36;8.50;;;4.60;;
13085;SDS011;6609;49.882;8.664;2024-03-17T13:25:07;8.43;;;5.20;;
13085;SDS011;6609;49.882;8.664;2024-03-17T13:27:38;9.53;;;5.63;;
13085;SDS011;6609;49.882;8.664;2024-03-17T13:30:05;6.90;;;4.83;;
13085;SDS011;6609;49.882;8.664;2024-03-17T13:32:34;9.03;;;5.50;;
13085;SDS011;6609;49.882;8.664;2024-03-17T13:35:01;10.80;;;6.33;;
13085;SDS011;6609;49.882;8.664;2024-03-17T13:37:28;7.43;;;5.27;;
13085;SDS011;6609;49.882;8.664;2024-03-17T13:39:55;11.73;;;5.67;;
13085;SDS011;6609;49.882;8.664;2024-03-17T13:42:23;7.90;;;5.93;;
13085;SDS011;6609;49.882;8.664;2024-03-17T13:44:50;10.90;;;6.40;;
13085;SDS011;6609;49.882;8.664;2024-03-17T13:47:17;7.63;;;5.27;;
13085;SDS011;6609;49.882;8.664;2024-03-17T13:49:44;9.33;;;5.77;;
13085;SDS011;6609;49.882;8.664;2024-03-17T13:52:12;6.33;;;4.70;;
13085;SDS011;6609;49.882;8.664;2024-03-17T13:54:39;9.07;;;5.93;;
13085;SDS011;6609;49.882;8.664;2024-03-17T13:57:06;7.93;;;5.20;;
13085;SDS011;6609;49.882;8.664;2024-03-17T13:59:34;8.23;;;5.43;;
13085;SDS011;6609;49.882;8.664;2024-03-17T14:02:01;9.17;;;5.20;;
13085;SDS011;6609;49.882;8.664;2024-03-17T14:04:29;9.40;;;5.63;;
13085;SDS011;6609;49.882;8.664;2024-03-17T14:06:56;6.10;;;4.90;;
13085;SDS011;6609;49.882;8.664;2024-03-17T14:09:23;12.33;;;5.57;;
13085;SDS011;6609;49.882;8.664;2024-03-17T14:11:51;6.37;;;4.40;;
13085;SDS011;6609;49.882;8.664;2024-03-17T14:14:18;8.83;;;6.17;;
13085;SDS011;6609;49.882;8.664;2024-03-17T14:16:46;8.57;;;5.27;;
13085;SDS011;6609;49.882;8.664;2024-03-17T14:19:13;8.30;;;5.50;;
13085;SDS011;6609;49.882;8.664;2024-03-17T14:21:40;7.60;;;5.20;;
13085;SDS011;6609;49.882;8.664;2024-03-17T14:24:07;8.60;;;5.53;;
13085;SDS011;6609;49.882;8.664;2024-03-17T14:26:35;7.80;;;5.10;;
13085;SDS011;6609;49.882;8.664;2024-03-17T14:29:02;7.33;;;5.20;;
13085;SDS011;6609;49.882;8.664;2024-03-17T14:31:30;7.33;;;4.97;;
13085;SDS011;6609;49.882;8.664;2024-03-17T14:34:00;6.93;;;5.30;;
13085;SDS011;6609;49.882;8.664;2024-03-17T14:36:27;7.07;;;5.07;;
13085;SDS011;6609;49.882;8.664;2024-03-17T14:38:56;9.87;;;5.20;;
13085;SDS011;6609;49.882;8.664;2024-03-17T14:41:24;9.33;;;4.50;;
13085;SDS011;6609;49.882;8.664;2024-03-17T14:43:51;7.30;;;4.43;;
13085;SDS011;6609;49.882;8.664;2024-03-17T14:46:18;7.10;;;5.07;;
13085;SDS011;6609;49.882;8.664;2024-03-17T14:48:45;9.10;;;5.17;;
13085;SDS011;6609;49.882;8.664;2024-03-17T14:51:13;8.73;;;5.57;;
13085;SDS011;6609;49.882;8.664;2024-03-17T14:53:40;7.33;;;4.97;;
13085;SDS011;6609;49.882;8.664;2024-03-17T14:56:13;8.43;;;5.13;;
13085;SDS011;6609;49.882;8.664;2024-03-17T14:58:41;8.03;;;4.80;;
13085;SDS011;6609;49.882;8.664;2024-03-17T15:01:08;10.37;;;5.63;;
13085;SDS011;6609;49.882;8.664;2024-03-17T15:03:35;8.13;;;5.00;;
13085;SDS011;6609;49.882;8.664;2024-03-17T15:06:02;8.00;;;5.00;;
13085;SDS011;6609;49.882;8.664;2024-03-17T15:08:30;11.17;;;4.87;;
13085;SDS011;6609;49.882;8.664;2024-03-17T15:10:57;9.57;;;4.80;;
13085;SDS011;6609;49.882;8.664;2024-03-17T15:13:24;8.37;;;5.30;;
13085;SDS011;6609;49.882;8.664;2024-03-17T15:15:52;8.57;;;5.23;;
13085;SDS011;6609;49.882;8.664;2024-03-17T15:18:19;8.40;;;4.47;;
13085;SDS011;6609;49.882;8.664;2024-03-17T15:20:50;12.00;;;4.83;;
13085;SDS011;6609;49.882;8.664;2024-03-17T15:23:18;11.53;;;5.67;;
13085;SDS011;6609;49.882;8.664;2024-03-17T15:25:46;10.63;;;5.47;;
13085;SDS011;6609;49.882;8.664;2024-03-17T15:28:13;6.10;;;4.87;;
13085;SDS011;6609;49.882;8.664;2024-03-17T15:30:40;21.07;;;5.77;;
13085;SDS011;6609;49.882;8.664;2024-03-17T15:33:07;5.97;;;4.57;;
13085;SDS011;6609;49.882;8.664;2024-03-17T15:35:35;6.47;;;4.83;;
13085;SDS011;6609;49.882;8.664;2024-03-17T15:38:07;24.37;;;5.23;;
13085;SDS011;6609;49.882;8.664;2024-03-17T16:03:34;5.13;;;3.30;;
13085;SDS011;6609;49.882;8.664;2024-03-17T16:06:04;5.47;;;4.00;;
13085;SDS011;6609;49.882;8.664;2024-03-17T16:08:33;5.40;;;3.87;;
13085;SDS011;6609;49.882;8.664;2024-03-17T16:11:06;4.33;;;3.57;;
13085;SDS011;6609;49.882;8.664;2024-03-17T16:13:34;5.47;;;3.90;;
13085;SDS011;6609;49.882;8.664;2024-03-17T16:16:02;6.70;;;4.60;;
13085;SDS011;6609;49.882;8.664;2024-03-17T16:18:33;9.50;;;5.43;;
13085;SDS011;6609;49.882;8.664;2024-03-17T16:21:00;6.73;;;4.50;;
13085;SDS011;6609;49.882;8.664;2024-03-17T16:23:32;9.50;;;4.93;;
13085;SDS011;6609;49.882;8.664;2024-03-17T16:26:00;6.90;;;4.60;;
13085;SDS011;6609;49.882;8.664;2024-03-17T16:28:27;9.10;;;4.40;;
13085;SDS011;6609;49.882;8.664;2024-03-17T16:30:55;6.80;;;4.20;;
13085;SDS011;6609;49.882;8.664;2024-03-17T16:33:22;10.63;;;4.60;;
13085;SDS011;6609;49.882;8.664;2024-03-17T16:35:52;8.13;;;5.00;;
13085;SDS011;6609;49.882;8.664;2024-03-17T16:38:19;6.90;;;3.97;;
13085;SDS011;6609;49.882;8.664;2024-03-17T16:40:47;7.73;;;4.50;;
13085;SDS011;6609;49.882;8.664;2024-03-17T16:43:16;5.73;;;3.20;;
13085;SDS011;6609;49.882;8.664;2024-03-17T16:45:51;9.20;;;3.97;;
13085;SDS011;6609;49.882;8.664;2024-03-17T16:48:26;7.07;;;3.70;;
13085;SDS011;6609;49.882;8.664;2024-03-17T16:50:55;8.23;;;3.97;;
13085;SDS011;6609;49.882;8.664;2024-03-17T16:53:22;7.07;;;3.83;;
13085;SDS011;6609;49.882;8.664;2024-03-17T16:55:50;10.23;;;4.33;;
13085;SDS011;6609;49.882;8.664;2024-03-17T16:58:16;6.27;;;3.60;;
13085;SDS011;6609;49.882;8.664;2024-03-17T17:00:43;4.67;;;3.53;;
13085;SDS011;6609;49.882;8.664;2024-03-17T17:03:10;5.27;;;3.30;;
13085;SDS011;6609;49.882;8.664;2024-03-17T17:05:37;5.27;;;3.50;;
13085;SDS011;6609;49.882;8.664;2024-03-17T17:08:06;5.47;;;3.77;;
13085;SDS011;6609;49.882;8.664;2024-03-17T17:10:33;6.23;;;3.60;;
13085;SDS011;6609;49.882;8.664;2024-03-17T17:13:01;6.50;;;3.43;;
13085;SDS011;6609;49.882;8.664;2024-03-17T17:15:27;6.30;;;3.67;;
13085;SDS011;6609;49.882;8.664;2024-03-17T17:17:55;4.67;;;2.70;;
13085;SDS011;6609;49.882;8.664;2024-03-17T17:20:22;8.37;;;3.93;;
13085;SDS011;6609;49.882;8.664;2024-03-17T17:22:50;8.77;;;4.57;;
13085;SDS011;6609;49.882;8.664;2024-03-17T17:25:19;5.60;;;3.83;;
13085;SDS011;6609;49.882;8.664;2024-03-17T17:27:47;7.30;;;3.43;;
13085;SDS011;6609;49.882;8.664;2024-03-17T17:30:14;5.23;;;3.67;;
13085;SDS011;6609;49.882;8.664;2024-03-17T17:32:41;6.37;;;3.00;;
13085;SDS011;6609;49.882;8.664;2024-03-17T17:35:09;4.17;;;2.80;;
13085;SDS011;6609;49.882;8.664;2024-03-17T17:37:36;5.10;;;3.00;;
13085;SDS011;6609;49.882;8.664;2024-03-17T17:40:03;4.00;;;2.50;;
13085;SDS011;6609;49.882;8.664;2024-03-17T17:42:32;6.43;;;3.40;;
13085;SDS011;6609;49.882;8.664;2024-03-17T17:44:58;6.27;;;2.93;;
13085;SDS011;6609;49.882;8.664;2024-03-17T17:47:25;4.57;;;2.93;;
13085;SDS011;6609;49.882;8.664;2024-03-17T17:49:53;4.23;;;2.90;;
13085;SDS011;6609;49.882;8.664;2024-03-17T17:52:19;3.57;;;2.73;;
13085;SDS011;6609;49.882;8.664;2024-03-17T17:54:46;4.33;;;2.67;;
13085;SDS011;6609;49.882;8.664;2024-03-17T17:57:13;3.37;;;2.60;;
13085;SDS011;6609;49.882;8.664;2024-03-17T17:59:42;4.73;;;3.03;;
13085;SDS011;6609;49.882;8.664;2024-03-17T18:02:09;5.13;;;2.30;;
13085;SDS011;6609;49.882;8.664;2024-03-17T18:04:36;4.40;;;2.50;;
13085;SDS011;6609;49.882;8.664;2024-03-17T18:07:03;3.07;;;2.00;;
13085;SDS011;6609;49.882;8.664;2024-03-17T18:09:31;7.67;;;3.23;;
13085;SDS011;6609;49.882;8.664;2024-03-17T18:11:57;4.90;;;2.60;;
13085;SDS011;6609;49.882;8.664;2024-03-17T18:14:25;7.17;;;2.90;;
13085;SDS011;6609;49.882;8.664;2024-03-17T18:16:53;5.50;;;2.57;;
13085;SDS011;6609;49.882;8.664;2024-03-17T18:19:21;7.23;;;2.90;;
13085;SDS011;6609;49.882;8.664;2024-03-17T18:21:48;7.13;;;3.00;;
13085;SDS011;6609;49.882;8.664;2024-03-17T18:24:15;6.63;;;3.17;;
13085;SDS011;6609;49.882;8.664;2024-03-17T18:26:42;6.97;;;2.87;;
13085;SDS011;6609;49.882;8.664;2024-03-17T18:29:10;5.90;;;3.13;;
13085;SDS011;6609;49.882;8.664;2024-03-17T18:31:37;6.70;;;2.83;;
13085;SDS011;6609;49.882;8.664;2024-03-17T18:34:05;5.30;;;3.10;;
13085;SDS011;6609;49.882;8.664;2024-03-17T18:36:34;5.50;;;3.70;;
13085;SDS011;6609;49.882;8.664;2024-03-17T18:39:01;10.17;;;4.47;;
13085;SDS011;6609;49.882;8.664;2024-03-17T18:41:28;6.37;;;3.57;;
13085;SDS011;6609;49.882;8.664;2024-03-17T18:43:55;5.13;;;3.40;;
13085;SDS011;6609;49.882;8.664;2024-03-17T18:46:22;5.67;;;2.80;;
13085;SDS011;6609;49.882;8.664;2024-03-17T18:48:49;4.03;;;2.73;;
13085;SDS011;6609;49.882;8.664;2024-03-17T18:51:18;5.60;;;3.00;;
13085;SDS011;6609;49.882;8.664;2024-03-17T18:53:47;3.30;;;2.35;;
13085;SDS011;6609;49.882;8.664;2024-03-17T19:01:13;5.63;;;2.90;;
13085;SDS011;6609;49.882;8.664;2024-03-17T19:03:39;5.13;;;3.10;;
13085;SDS011;6609;49.882;8.664;2024-03-17T19:06:07;5.83;;;3.10;;
13085;SDS011;6609;49.882;8.664;2024-03-17T19:08:36;7.00;;;3.23;;
13085;SDS011;6609;49.882;8.664;2024-03-17T19:28:13;3.63;;;2.47;;
13085;SDS011;6609;49.882;8.664;2024-03-17T19:30:40;4.90;;;3.13;;
13085;SDS011;6609;49.882;8.664;2024-03-17T19:33:08;4.60;;;2.83;;
13085;SDS011;6609;49.882;8.664;2024-03-17T19:35:35;6.10;;;3.03;;
13085;SDS011;6609;49.882;8.664;2024-03-17T19:38:02;5.80;;;2.57;;
13085;SDS011;6609;49.882;8.664;2024-03-17T19:40:29;5.43;;;3.17;;
13085;SDS011;6609;49.882;8.664;2024-03-17T19:42:58;5.27;;;3.47;;
13085;SDS011;6609;49.882;8.664;2024-03-17T19:45:25;8.70;;;5.97;;
13085;SDS011;6609;49.882;8.664;2024-03-17T19:47:52;8.83;;;4.47;;
13085;SDS011;6609;49.882;8.664;2024-03-17T19:50:19;5.47;;;3.97;;
13085;SDS011;6609;49.882;8.664;2024-03-17T19:52:46;7.37;;;4.47;;
13085;SDS011;6609;49.882;8.664;2024-03-17T19:55:14;9.83;;;5.03;;
13085;SDS011;6609;49.882;8.664;2024-03-17T19:57:44;4.17;;;2.73;;
13085;SDS011;6609;49.882;8.664;2024-03-17T20:00:12;6.40;;;3.37;;
